createdAt,value
2017-10-26T00:00:02.739Z,5.15
2017-10-26T00:02:29.011Z,4.60
2017-10-26T00:04:55.303Z,5.40
2017-10-26T00:07:21.558Z,5.10
2017-10-26T00:09:47.836Z,5.55
2017-10-26T00:12:14.119Z,5.53
2017-10-26T00:14:40.391Z,6.35
2017-10-26T00:17:06.703Z,5.60
2017-10-26T00:19:33.034Z,3.80
2017-10-26T00:21:59.358Z,4.93
2017-10-26T00:24:25.658Z,6.25
2017-10-26T00:26:51.938Z,5.50
2017-10-26T00:29:18.207Z,6.37
2017-10-26T00:31:45.237Z,4.20
2017-10-26T00:34:11.503Z,4.95
2017-10-26T00:36:38.542Z,6.82
2017-10-26T00:39:04.832Z,4.53
2017-10-26T00:41:31.839Z,7.55
2017-10-26T00:43:58.154Z,4.97
2017-10-26T00:46:24.431Z,4.87
2017-10-26T00:48:51.466Z,6.07
2017-10-26T00:51:17.774Z,4.82
2017-10-26T00:53:44.027Z,5.95
2017-10-26T00:56:11.346Z,7.80
2017-10-26T00:58:37.649Z,5.45
2017-10-26T01:01:03.962Z,7.30
2017-10-26T01:03:31.035Z,4.43
2017-10-26T01:05:57.321Z,4.82
2017-10-26T01:08:23.658Z,5.12
2017-10-26T01:10:50.699Z,5.03
2017-10-26T01:13:16.965Z,7.18
2017-10-26T01:15:43.279Z,5.53
2017-10-26T01:18:09.550Z,5.82
2017-10-26T01:20:35.852Z,5.47
2017-10-26T01:23:02.903Z,4.28
2017-10-26T01:25:29.978Z,7.35
2017-10-26T01:27:56.251Z,4.80
2017-10-26T01:30:22.572Z,5.50
2017-10-26T01:32:48.847Z,6.50
2017-10-26T01:35:15.923Z,8.30
2017-10-26T01:37:42.199Z,8.50
2017-10-26T01:40:08.485Z,9.25
2017-10-26T01:42:34.839Z,6.28
2017-10-26T01:45:01.125Z,5.40
2017-10-26T01:47:28.162Z,5.87
2017-10-26T01:49:54.474Z,3.95
2017-10-26T01:52:21.506Z,7.03
2017-10-26T01:54:47.848Z,7.05
2017-10-26T01:57:14.155Z,8.27
2017-10-26T01:59:41.207Z,4.43
2017-10-26T02:02:08.256Z,5.93
2017-10-26T02:04:34.588Z,4.72
2017-10-26T02:07:00.894Z,4.72
2017-10-26T02:09:27.202Z,4.95
2017-10-26T02:11:53.515Z,4.78
2017-10-26T02:14:19.855Z,3.20
2017-10-26T02:16:46.166Z,3.72
2017-10-26T02:19:12.510Z,7.72
2017-10-26T02:21:38.838Z,5.00
2017-10-26T02:24:05.904Z,7.65
2017-10-26T02:26:32.271Z,6.07
2017-10-26T02:31:57.651Z,7.15
2017-10-26T02:34:23.982Z,5.85
2017-10-26T02:36:50.263Z,8.85
2017-10-26T02:39:16.591Z,6.78
2017-10-26T02:41:42.888Z,6.03
2017-10-26T02:44:09.234Z,8.05
2017-10-26T02:46:35.532Z,7.55
2017-10-26T02:49:02.603Z,6.07
2017-10-26T02:51:28.898Z,7.05
2017-10-26T02:53:55.210Z,8.48
2017-10-26T02:56:21.511Z,6.68
2017-10-26T02:58:47.802Z,8.48
2017-10-26T03:01:14.110Z,6.82
2017-10-26T03:03:40.506Z,5.43
2017-10-26T03:06:06.846Z,7.25
2017-10-26T03:08:33.191Z,12.30
2017-10-26T03:10:59.498Z,4.68
2017-10-26T03:13:25.828Z,7.90
2017-10-26T03:15:52.191Z,7.05
2017-10-26T03:18:18.490Z,9.60
2017-10-26T03:20:45.898Z,5.82
2017-10-26T03:23:12.192Z,4.47
2017-10-26T03:25:38.478Z,6.87
2017-10-26T03:28:05.487Z,7.12
2017-10-26T03:30:31.816Z,5.90
2017-10-26T03:32:58.078Z,5.00
2017-10-26T03:35:24.375Z,6.80
2017-10-26T03:37:50.667Z,6.40
2017-10-26T03:40:16.962Z,5.90
2017-10-26T03:42:43.237Z,5.18
2017-10-26T03:45:09.567Z,8.27
2017-10-26T03:47:35.852Z,4.65
2017-10-26T03:50:02.146Z,13.95
2017-10-26T03:52:28.437Z,8.52
2017-10-26T03:54:55.710Z,6.30
2017-10-26T03:57:21.983Z,5.03
2017-10-26T03:59:48.290Z,5.95
2017-10-26T04:02:14.538Z,5.95
2017-10-26T04:04:40.827Z,8.43
2017-10-26T04:07:07.115Z,7.55
2017-10-26T04:09:34.092Z,9.02
2017-10-26T04:12:00.413Z,7.43
2017-10-26T04:14:26.703Z,5.50
2017-10-26T04:16:53.711Z,10.50
2017-10-26T04:19:20.022Z,6.37
2017-10-26T04:21:47.036Z,9.88
2017-10-26T04:24:13.394Z,9.18
2017-10-26T04:26:39.702Z,9.10
2017-10-26T04:29:06.786Z,5.50
2017-10-26T04:31:33.884Z,9.80
2017-10-26T04:34:00.228Z,5.30
2017-10-26T04:36:26.554Z,6.40
2017-10-26T04:38:53.586Z,6.97
2017-10-26T04:41:19.863Z,8.65
2017-10-26T04:43:46.182Z,9.10
2017-10-26T04:46:12.471Z,6.82
2017-10-26T04:48:38.827Z,9.85
2017-10-26T04:51:05.133Z,7.25
2017-10-26T04:53:31.454Z,6.68
2017-10-26T04:55:57.721Z,8.98
2017-10-26T04:58:24.783Z,6.10
2017-10-26T05:00:51.083Z,8.25
2017-10-26T05:03:17.338Z,8.32
2017-10-26T05:05:43.658Z,8.48
2017-10-26T05:08:10.670Z,6.57
2017-10-26T05:10:37.002Z,7.43
2017-10-26T05:13:03.274Z,9.70
2017-10-26T05:15:30.344Z,8.70
2017-10-26T05:17:56.639Z,11.00
2017-10-26T05:20:23.660Z,6.72
2017-10-26T05:22:52.063Z,10.23
2017-10-26T05:25:18.362Z,10.27
2017-10-26T05:27:44.663Z,9.52
2017-10-26T05:30:10.943Z,8.98
2017-10-26T05:32:37.231Z,12.65
2017-10-26T05:35:04.298Z,9.32
2017-10-26T05:37:30.630Z,8.65
2017-10-26T05:39:56.943Z,13.40
2017-10-26T05:42:24.006Z,9.43
2017-10-26T05:44:50.311Z,9.85
2017-10-26T05:47:16.602Z,12.95
2017-10-26T05:49:42.874Z,9.07
2017-10-26T05:52:11.331Z,10.35
2017-10-26T05:54:37.636Z,10.50
2017-10-26T05:57:04.035Z,11.20
2017-10-26T05:59:30.346Z,12.27
2017-10-26T06:01:56.638Z,8.77
2017-10-26T06:04:22.943Z,14.18
2017-10-26T06:06:49.220Z,9.18
2017-10-26T06:09:15.510Z,12.20
2017-10-26T06:11:41.783Z,13.77
2017-10-26T06:14:08.819Z,10.45
2017-10-26T06:16:35.139Z,13.27
2017-10-26T06:19:01.415Z,7.75
2017-10-26T06:21:27.700Z,11.63
2017-10-26T06:23:53.978Z,22.20
2017-10-26T06:26:20.251Z,11.05
2017-10-26T06:28:46.544Z,11.77
2017-10-26T06:31:12.839Z,11.52
2017-10-26T06:33:39.844Z,15.70
2017-10-26T06:36:06.172Z,16.05
2017-10-26T06:38:33.224Z,14.20
2017-10-26T06:40:59.490Z,10.35
2017-10-26T06:43:26.625Z,12.25
2017-10-26T06:45:52.914Z,11.73
2017-10-26T06:48:19.218Z,10.32
2017-10-26T06:50:45.567Z,12.70
2017-10-26T06:53:11.835Z,11.80
2017-10-26T06:55:38.106Z,11.27
2017-10-26T06:58:04.495Z,8.57
2017-10-26T07:00:30.794Z,10.52
2017-10-26T07:02:57.087Z,11.18
2017-10-26T07:05:24.143Z,12.48
2017-10-26T07:07:50.430Z,9.30
2017-10-26T07:10:16.716Z,8.95
2017-10-26T07:12:43.022Z,11.12
2017-10-26T07:15:09.327Z,9.27
2017-10-26T07:17:35.722Z,10.90
2017-10-26T07:20:02.797Z,10.18
2017-10-26T07:22:29.087Z,11.70
2017-10-26T07:24:56.507Z,11.40
2017-10-26T07:27:22.869Z,14.38
2017-10-26T07:29:51.046Z,9.23
2017-10-26T07:32:17.319Z,10.93
2017-10-26T07:34:44.678Z,14.00
2017-10-26T07:37:11.077Z,14.20
2017-10-26T07:39:37.662Z,9.47
2017-10-26T07:42:04.488Z,10.67
2017-10-26T07:44:31.586Z,11.63
2017-10-26T07:46:57.894Z,9.17
2017-10-26T07:49:24.322Z,9.80
2017-10-26T07:51:50.755Z,8.00
2017-10-26T07:54:17.097Z,9.30
2017-10-26T07:56:43.395Z,11.80
2017-10-26T07:59:09.840Z,22.73
2017-10-26T08:01:37.038Z,22.80
2017-10-26T08:04:03.678Z,34.87
2017-10-26T08:06:30.247Z,30.13
2017-10-26T08:08:57.652Z,41.00
2017-10-26T08:11:24.114Z,49.45
2017-10-26T08:13:50.440Z,54.40
2017-10-26T08:16:16.793Z,46.73
2017-10-26T08:18:43.860Z,52.43
2017-10-26T08:21:10.851Z,38.77
2017-10-26T08:23:37.990Z,39.07
2017-10-26T08:26:04.744Z,46.20
2017-10-26T08:28:32.099Z,41.33
2017-10-26T08:30:58.714Z,57.40
2017-10-26T08:33:26.886Z,47.77
2017-10-26T08:35:53.366Z,46.27
2017-10-26T08:38:19.699Z,47.10
2017-10-26T08:40:46.089Z,50.57
2017-10-26T08:43:13.058Z,37.77
2017-10-26T08:45:40.224Z,36.80
2017-10-26T08:48:06.878Z,46.50
2017-10-26T08:50:33.269Z,39.13
2017-10-26T08:53:02.006Z,28.07
2017-10-26T08:55:29.391Z,53.63
2017-10-26T08:57:55.767Z,37.50
2017-10-26T09:00:22.166Z,43.83
2017-10-26T09:02:48.508Z,39.87
2017-10-26T09:05:14.871Z,41.90
2017-10-26T09:07:41.934Z,40.37
2017-10-26T09:10:08.271Z,22.73
2017-10-26T09:12:34.691Z,16.90
2017-10-26T09:15:01.940Z,22.90
2017-10-26T09:17:28.287Z,31.37
2017-10-26T09:19:54.683Z,34.90
2017-10-26T09:22:21.083Z,40.03
2017-10-26T09:24:48.155Z,40.23
2017-10-26T09:27:15.218Z,42.90
2017-10-26T09:29:42.598Z,46.83
2017-10-26T09:32:09.007Z,40.30
2017-10-26T09:34:35.422Z,38.60
2017-10-26T09:37:01.755Z,29.30
2017-10-26T09:39:28.058Z,24.93
2017-10-26T09:41:54.443Z,23.03
2017-10-26T09:44:21.538Z,13.00
2017-10-26T09:46:47.869Z,16.67
2017-10-26T09:49:14.205Z,19.10
2017-10-26T09:51:40.542Z,26.07
2017-10-26T09:54:07.603Z,18.70
2017-10-26T09:56:35.143Z,23.90
2017-10-26T09:59:01.490Z,20.50
2017-10-26T10:01:27.794Z,24.07
2017-10-26T10:03:54.139Z,23.80
2017-10-26T10:06:20.454Z,16.43
2017-10-26T10:08:46.762Z,15.53
2017-10-26T10:11:13.107Z,18.87
2017-10-26T10:13:39.403Z,18.77
2017-10-26T10:16:05.702Z,18.37
2017-10-26T10:18:32.787Z,23.13
2017-10-26T10:20:59.095Z,18.90
2017-10-26T10:23:25.428Z,16.87
2017-10-26T10:25:51.774Z,17.73
2017-10-26T10:28:18.103Z,21.40
2017-10-26T10:30:44.434Z,14.17
2017-10-26T10:33:10.778Z,13.00
2017-10-26T10:35:37.163Z,14.70
2017-10-26T10:38:03.551Z,12.90
2017-10-26T10:40:29.879Z,18.47
2017-10-26T10:42:56.963Z,10.30
2017-10-26T10:45:23.270Z,15.67
2017-10-26T10:47:49.640Z,16.17
2017-10-26T10:50:15.935Z,19.13
2017-10-26T10:52:42.961Z,17.83
2017-10-26T10:55:09.306Z,11.17
2017-10-26T10:57:35.638Z,11.23
2017-10-26T11:03:01.574Z,14.70
2017-10-26T11:05:27.890Z,13.67
2017-10-26T11:07:54.202Z,18.87
2017-10-26T11:10:20.522Z,15.70
2017-10-26T11:12:46.880Z,11.87
2017-10-26T11:15:13.166Z,12.27
2017-10-26T11:17:40.534Z,13.40
2017-10-26T11:20:06.893Z,11.43
2017-10-26T11:22:33.234Z,12.77
2017-10-26T11:24:59.565Z,19.57
2017-10-26T11:27:25.894Z,14.67
2017-10-26T11:29:52.215Z,12.40
2017-10-26T11:32:18.543Z,9.20
2017-10-26T11:34:44.862Z,11.20
2017-10-26T11:37:11.178Z,9.10
2017-10-26T11:39:37.517Z,11.80
2017-10-26T11:42:03.882Z,10.40
2017-10-26T11:44:30.202Z,8.50
2017-10-26T11:46:56.534Z,10.17
2017-10-26T11:49:22.895Z,9.43
2017-10-26T11:51:49.942Z,6.97
2017-10-26T11:54:16.995Z,7.40
2017-10-26T11:56:43.302Z,5.30
2017-10-26T11:59:09.634Z,5.50
2017-10-26T12:01:36.007Z,8.03
2017-10-26T12:04:02.394Z,6.87
2017-10-26T12:06:28.722Z,5.30
2017-10-26T12:08:55.739Z,5.20
2017-10-26T12:11:22.043Z,5.77
2017-10-26T12:13:48.379Z,7.37
2017-10-26T12:16:14.671Z,7.37
2017-10-26T12:18:41.022Z,9.43
2017-10-26T12:21:08.115Z,12.53
2017-10-26T12:23:34.524Z,8.67
2017-10-26T12:26:00.890Z,10.70
2017-10-26T12:28:27.185Z,11.40
2017-10-26T12:30:53.588Z,7.50
2017-10-26T12:33:19.938Z,9.17
2017-10-26T12:35:46.234Z,7.40
2017-10-26T12:38:13.346Z,8.97
2017-10-26T12:40:39.678Z,9.73
2017-10-26T12:43:06.018Z,5.63
2017-10-26T12:45:32.351Z,6.60
2017-10-26T12:47:58.667Z,6.10
2017-10-26T12:50:25.019Z,7.30
2017-10-26T12:52:51.338Z,8.30
2017-10-26T12:55:17.670Z,8.20
2017-10-26T12:57:43.966Z,8.60
2017-10-26T13:00:10.313Z,5.80
2017-10-26T13:02:36.675Z,9.97
2017-10-26T13:05:02.978Z,7.80
2017-10-26T13:07:29.362Z,8.13
2017-10-26T13:09:55.662Z,6.20
2017-10-26T13:12:22.735Z,30.30
2017-10-26T13:14:49.058Z,9.47
2017-10-26T13:17:16.139Z,8.37
2017-10-26T13:19:42.454Z,10.30
2017-10-26T13:22:08.784Z,10.23
2017-10-26T13:24:35.115Z,6.80
2017-10-26T13:27:01.487Z,7.70
2017-10-26T13:29:27.815Z,6.53
2017-10-26T13:31:54.505Z,8.63
2017-10-26T13:34:21.910Z,6.10
2017-10-26T13:36:48.224Z,5.57
2017-10-26T13:39:14.490Z,5.80
2017-10-26T13:41:40.815Z,5.20
2017-10-26T13:44:07.179Z,6.63
2017-10-26T13:46:34.056Z,6.20
2017-10-26T13:49:00.386Z,6.63
2017-10-26T13:51:26.695Z,9.50
2017-10-26T13:53:53.062Z,6.27
2017-10-26T13:56:19.370Z,7.60
2017-10-26T13:58:46.451Z,7.50
2017-10-26T14:01:12.778Z,7.27
2017-10-26T14:03:39.118Z,7.70
2017-10-26T14:06:05.503Z,7.33
2017-10-26T14:08:32.537Z,6.73
2017-10-26T14:10:58.882Z,8.50
2017-10-26T14:13:25.257Z,6.47
2017-10-26T14:15:51.547Z,8.23
2017-10-26T14:18:18.867Z,10.07
2017-10-26T14:20:45.158Z,7.30
2017-10-26T14:23:11.454Z,9.77
2017-10-26T14:25:38.543Z,8.87
2017-10-26T14:28:04.873Z,6.77
2017-10-26T14:30:31.209Z,6.30
2017-10-26T14:32:57.491Z,6.90
2017-10-26T14:35:23.803Z,5.70
2017-10-26T14:37:50.098Z,7.40
2017-10-26T14:40:17.134Z,10.05
2017-10-26T14:42:44.198Z,7.90
2017-10-26T14:45:10.501Z,6.13
2017-10-26T14:47:36.912Z,7.53
2017-10-26T14:50:03.290Z,8.30
2017-10-26T14:52:29.922Z,6.83
2017-10-26T14:54:56.218Z,10.87
2017-10-26T14:57:22.555Z,7.40
2017-10-26T14:59:48.836Z,9.73
2017-10-26T15:02:15.086Z,8.03
2017-10-26T15:04:41.407Z,7.17
2017-10-26T15:07:07.694Z,8.80
2017-10-26T15:09:34.896Z,6.07
2017-10-26T15:12:01.235Z,7.93
2017-10-26T15:14:27.506Z,7.90
2017-10-26T15:16:53.799Z,9.63
2017-10-26T15:19:21.195Z,8.30
2017-10-26T15:21:48.239Z,14.60
2017-10-26T15:24:14.510Z,13.20
2017-10-26T15:26:40.822Z,17.17
2017-10-26T15:29:07.128Z,13.13
2017-10-26T15:31:33.423Z,14.27
2017-10-26T15:34:00.516Z,12.80
2017-10-26T15:36:26.794Z,12.40
2017-10-26T15:38:53.083Z,22.23
2017-10-26T15:41:19.447Z,21.17
2017-10-26T15:43:45.707Z,21.03
2017-10-26T15:46:12.008Z,14.10
2017-10-26T15:48:39.060Z,17.47
2017-10-26T15:51:05.428Z,14.63
2017-10-26T15:53:32.454Z,18.97
2017-10-26T15:55:58.763Z,14.90
2017-10-26T15:58:25.047Z,16.90
2017-10-26T16:00:51.318Z,27.20
2017-10-26T16:03:17.635Z,20.67
2017-10-26T16:05:43.946Z,22.53
2017-10-26T16:08:10.248Z,19.00
2017-10-26T16:10:36.734Z,21.00
2017-10-26T16:13:03.139Z,25.53
2017-10-26T16:15:30.231Z,20.50
2017-10-26T16:17:56.542Z,17.80
2017-10-26T16:20:22.821Z,24.00
2017-10-26T16:22:49.915Z,18.10
2017-10-26T16:25:16.239Z,23.10
2017-10-26T16:27:42.562Z,24.67
2017-10-26T16:30:08.906Z,20.10
2017-10-26T16:32:35.338Z,17.83
2017-10-26T16:35:02.277Z,18.30
2017-10-26T16:37:28.943Z,20.87
2017-10-26T16:39:56.318Z,16.70
2017-10-26T16:42:23.063Z,15.43
2017-10-26T16:44:50.668Z,16.83
2017-10-26T16:47:17.741Z,16.77
2017-10-26T16:49:45.019Z,17.60
2017-10-26T16:52:13.668Z,18.93
2017-10-26T16:54:42.599Z,18.03
2017-10-26T16:57:11.662Z,18.03
2017-10-26T16:59:41.105Z,17.20
2017-10-26T17:02:10.415Z,17.73
2017-10-26T17:04:39.695Z,18.80
2017-10-26T17:07:08.197Z,20.10
2017-10-26T17:09:36.832Z,17.67
2017-10-26T17:12:05.464Z,18.13
2017-10-26T17:14:34.693Z,20.97
2017-10-26T17:17:03.948Z,18.20
2017-10-26T17:19:33.229Z,25.43
2017-10-26T17:22:02.453Z,21.33
2017-10-26T17:24:31.568Z,20.80
2017-10-26T17:27:00.220Z,18.13
2017-10-26T17:29:28.961Z,20.00
2017-10-26T17:31:57.776Z,20.97
2017-10-26T17:34:26.696Z,21.23
2017-10-26T17:36:55.725Z,18.90
2017-10-26T17:39:24.618Z,21.90
2017-10-26T17:41:54.260Z,18.77
2017-10-26T17:44:23.016Z,16.10
2017-10-26T17:46:52.078Z,20.57
2017-10-26T17:49:21.217Z,18.10
2017-10-26T17:51:50.145Z,19.47
2017-10-26T17:54:19.261Z,23.70
2017-10-26T17:56:49.053Z,20.50
2017-10-26T17:59:18.319Z,19.43
2017-10-26T18:01:47.311Z,18.03
2017-10-26T18:04:16.213Z,24.57
2017-10-26T18:06:45.465Z,18.20
2017-10-26T18:09:14.429Z,22.10
2017-10-26T18:11:43.204Z,24.37
2017-10-26T18:14:12.194Z,23.13
2017-10-26T18:16:41.309Z,19.10
2017-10-26T18:19:10.152Z,19.60
2017-10-26T18:21:38.973Z,19.20
2017-10-26T18:24:09.206Z,21.00
2017-10-26T18:26:38.352Z,19.57
2017-10-26T18:29:07.980Z,18.70
2017-10-26T18:31:36.915Z,18.70
2017-10-26T18:34:06.039Z,19.77
2017-10-26T18:36:34.918Z,24.53
2017-10-26T18:39:04.879Z,21.67
2017-10-26T18:41:35.303Z,17.73
2017-10-26T18:44:05.398Z,16.03
2017-10-26T18:46:36.325Z,19.20
2017-10-26T18:49:05.889Z,20.43
2017-10-26T18:51:34.856Z,16.23
2017-10-26T18:54:03.798Z,21.07
2017-10-26T18:56:32.860Z,23.67
2017-10-26T18:59:01.923Z,19.70
2017-10-26T19:01:31.053Z,16.57
2017-10-26T19:04:00.271Z,16.93
2017-10-26T19:06:28.739Z,18.47
2017-10-26T19:08:57.458Z,21.20
2017-10-26T19:11:26.610Z,24.40
2017-10-26T19:13:55.529Z,18.37
2017-10-26T19:16:24.555Z,18.80
2017-10-26T19:18:55.114Z,21.57
2017-10-26T19:21:26.756Z,13.73
2017-10-26T19:23:56.372Z,15.03
2017-10-26T19:26:25.625Z,13.67
2017-10-26T19:28:54.632Z,18.40
2017-10-26T19:31:23.773Z,14.40
2017-10-26T19:33:52.708Z,16.53
2017-10-26T19:36:23.255Z,15.70
2017-10-26T19:38:53.052Z,16.80
2017-10-26T19:41:21.860Z,23.60
2017-10-26T19:43:50.913Z,18.27
2017-10-26T19:46:19.904Z,15.53
2017-10-26T19:48:48.970Z,19.10
2017-10-26T19:51:17.982Z,16.57
2017-10-26T19:53:47.448Z,14.73
2017-10-26T19:56:16.317Z,12.87
2017-10-26T19:58:45.648Z,18.33
2017-10-26T20:01:14.207Z,15.50
2017-10-26T20:03:43.129Z,17.67
2017-10-26T20:06:11.930Z,17.63
2017-10-26T20:08:41.467Z,18.50
2017-10-26T20:11:10.387Z,15.40
2017-10-26T20:13:38.947Z,15.90
2017-10-26T20:16:07.834Z,21.07
2017-10-26T20:18:36.861Z,15.13
2017-10-26T20:21:06.385Z,11.43
2017-10-26T20:23:36.547Z,16.67
2017-10-26T20:26:05.456Z,17.70
2017-10-26T20:28:34.810Z,14.40
2017-10-26T20:31:04.164Z,14.10
2017-10-26T20:33:36.941Z,13.43
2017-10-26T20:36:07.648Z,13.37
2017-10-26T20:38:36.392Z,11.97
2017-10-26T20:41:05.416Z,11.93
2017-10-26T20:43:34.866Z,17.73
2017-10-26T20:46:03.998Z,16.97
2017-10-26T20:48:34.044Z,10.33
2017-10-26T20:51:08.401Z,15.70
2017-10-26T20:53:43.389Z,15.47
2017-10-26T20:56:17.584Z,11.50
2017-10-26T20:58:51.736Z,10.43
2017-10-26T21:01:27.308Z,11.90
2017-10-26T21:04:02.989Z,17.57
2017-10-26T21:06:32.767Z,10.87
2017-10-26T21:09:07.524Z,15.07
2017-10-26T21:11:42.052Z,17.10
2017-10-26T21:14:18.650Z,14.87
2017-10-26T21:16:47.638Z,17.40
2017-10-26T21:19:16.235Z,16.93
2017-10-26T21:21:45.755Z,16.07
2017-10-26T21:24:17.081Z,17.63
2017-10-26T21:26:46.291Z,17.53
2017-10-26T21:29:16.033Z,16.13
2017-10-26T21:31:43.487Z,17.60
2017-10-26T21:34:10.084Z,17.50
2017-10-26T21:36:38.449Z,15.73
2017-10-26T21:39:04.835Z,14.63
2017-10-26T21:41:31.127Z,16.07
2017-10-26T21:43:57.494Z,16.07
2017-10-26T21:46:24.830Z,15.17
2017-10-26T21:48:51.112Z,17.33
2017-10-26T21:51:17.437Z,15.23
2017-10-26T21:53:43.718Z,15.27
2017-10-26T21:56:10.049Z,16.40
2017-10-26T21:58:36.401Z,17.47
2017-10-26T22:01:02.708Z,13.20
2017-10-26T22:03:29.043Z,20.70
2017-10-26T22:05:55.386Z,17.87
2017-10-26T22:08:21.686Z,14.10
2017-10-26T22:10:48.711Z,13.30
2017-10-26T22:13:15.011Z,14.67
2017-10-26T22:15:43.139Z,16.20
2017-10-26T22:18:09.443Z,17.23
2017-10-26T22:20:36.750Z,16.40
2017-10-26T22:23:03.062Z,15.70
2017-10-26T22:25:30.418Z,13.20
2017-10-26T22:27:56.790Z,13.03
2017-10-26T22:30:23.874Z,12.07
2017-10-26T22:32:50.223Z,14.83
2017-10-26T22:35:16.514Z,12.33
2017-10-26T22:37:42.796Z,14.67
2017-10-26T22:40:09.117Z,13.00
2017-10-26T22:42:36.161Z,16.60
2017-10-26T22:45:02.475Z,12.57
2017-10-26T22:47:28.795Z,18.57
2017-10-26T22:49:55.132Z,15.10
2017-10-26T22:52:21.415Z,12.97
2017-10-26T22:54:48.438Z,13.80
2017-10-26T22:57:14.742Z,15.93
2017-10-26T22:59:41.044Z,15.03
2017-10-26T23:02:07.363Z,14.03
2017-10-26T23:04:33.791Z,13.67
2017-10-26T23:07:01.919Z,13.10
2017-10-26T23:09:29.341Z,19.13
2017-10-26T23:11:55.631Z,15.20
2017-10-26T23:14:21.938Z,17.30
2017-10-26T23:16:48.234Z,16.10
2017-10-26T23:19:14.570Z,17.53
2017-10-26T23:21:40.835Z,18.00
2017-10-26T23:24:07.199Z,15.30
2017-10-26T23:26:35.226Z,14.37
2017-10-26T23:29:01.559Z,16.93
2017-10-26T23:31:28.575Z,13.23
2017-10-26T23:33:54.902Z,17.20
2017-10-26T23:36:21.186Z,16.97
2017-10-26T23:38:47.501Z,14.13
2017-10-26T23:41:14.548Z,19.90
2017-10-26T23:43:41.578Z,17.30
2017-10-26T23:46:07.873Z,23.80
2017-10-26T23:48:34.975Z,14.87
2017-10-26T23:51:01.263Z,18.80
2017-10-26T23:53:27.542Z,24.17
2017-10-26T23:55:54.570Z,24.33
2017-10-26T23:58:20.875Z,17.67
